createdAt,value
2018-08-04T00:00:36.492Z,21.80
2018-08-04T00:03:04.039Z,21.80
2018-08-04T00:05:31.876Z,21.80
2018-08-04T00:07:59.439Z,21.70
2018-08-04T00:10:27.655Z,21.70
2018-08-04T00:12:55.711Z,21.60
2018-08-04T00:15:23.556Z,21.60
2018-08-04T00:17:51.111Z,21.60
2018-08-04T00:20:19.394Z,21.60
2018-08-04T00:22:47.313Z,21.60
2018-08-04T00:25:14.839Z,21.60
2018-08-04T00:30:12.045Z,21.50
2018-08-04T00:32:39.703Z,21.50
2018-08-04T00:35:08.366Z,21.60
2018-08-04T00:37:36.828Z,21.60
2018-08-04T00:40:05.884Z,21.60
2018-08-04T00:42:33.758Z,21.60
2018-08-04T00:45:01.588Z,21.60
2018-08-04T00:47:29.100Z,21.50
2018-08-04T00:49:56.975Z,21.60
2018-08-04T00:52:25.191Z,21.60
2018-08-04T00:54:52.815Z,21.60
2018-08-04T00:57:20.332Z,21.60
2018-08-04T00:59:47.870Z,21.50
2018-08-04T01:02:15.404Z,21.50
2018-08-04T01:04:43.543Z,21.50
2018-08-04T01:09:39.304Z,21.40
2018-08-04T01:12:06.848Z,21.30
2018-08-04T01:14:34.960Z,21.40
2018-08-04T01:17:02.515Z,21.30
2018-08-04T01:19:30.390Z,21.30
2018-08-04T01:21:58.274Z,21.30
2018-08-04T01:24:26.604Z,21.30
2018-08-04T01:26:54.252Z,21.30
2018-08-04T01:29:21.756Z,21.30
2018-08-04T01:31:49.312Z,21.20
2018-08-04T01:34:17.340Z,21.30
2018-08-04T01:36:44.852Z,21.30
2018-08-04T01:39:12.384Z,21.30
2018-08-04T01:41:40.415Z,21.20
2018-08-04T01:44:08.356Z,21.30
2018-08-04T01:46:35.856Z,21.20
2018-08-04T01:49:03.740Z,21.30
2018-08-04T01:51:31.756Z,21.20
2018-08-04T01:53:59.344Z,21.20
2018-08-04T01:56:26.852Z,21.20
2018-08-04T01:58:54.390Z,21.20
2018-08-04T02:01:22.624Z,21.20
2018-08-04T02:03:51.212Z,21.20
2018-08-04T02:08:46.308Z,21.20
2018-08-04T02:11:13.854Z,21.10
2018-08-04T02:13:41.882Z,21.10
2018-08-04T02:16:10.060Z,21.10
2018-08-04T02:18:37.580Z,21.10
2018-08-04T02:21:06.004Z,21.00
2018-08-04T02:23:33.892Z,21.00
2018-08-04T02:26:01.524Z,21.00
2018-08-04T02:28:30.341Z,21.00
2018-08-04T02:30:57.960Z,20.90
2018-08-04T02:33:26.292Z,20.90
2018-08-04T02:35:53.796Z,20.90
2018-08-04T02:38:21.660Z,20.90
2018-08-04T02:40:49.794Z,20.80
2018-08-04T02:43:18.088Z,20.80
2018-08-04T02:45:45.928Z,20.90
2018-08-04T02:48:14.028Z,20.80
2018-08-04T02:50:41.527Z,20.80
2018-08-04T02:53:09.059Z,20.80
2018-08-04T02:55:36.631Z,20.80
2018-08-04T02:58:04.371Z,20.80
2018-08-04T03:00:32.583Z,20.80
2018-08-04T03:03:00.575Z,20.80
2018-08-04T03:05:28.416Z,20.80
2018-08-04T03:07:55.935Z,20.70
2018-08-04T03:10:23.439Z,20.60
2018-08-04T03:12:52.020Z,20.60
2018-08-04T03:15:19.993Z,20.60
2018-08-04T03:22:44.295Z,20.50
2018-08-04T03:25:12.487Z,20.50
2018-08-04T03:27:40.345Z,20.50
2018-08-04T03:30:07.941Z,20.50
2018-08-04T03:32:35.756Z,20.50
2018-08-04T03:35:04.213Z,20.50
2018-08-04T03:37:31.735Z,20.50
2018-08-04T03:40:00.660Z,20.50
2018-08-04T03:42:28.548Z,20.50
2018-08-04T03:44:56.815Z,20.60
2018-08-04T03:47:24.343Z,20.60
2018-08-04T03:49:52.164Z,20.60
2018-08-04T03:52:19.675Z,20.60
2018-08-04T03:54:47.199Z,20.60
2018-08-04T03:57:14.809Z,20.60
2018-08-04T03:59:42.747Z,20.60
2018-08-04T04:02:11.300Z,20.50
2018-08-04T04:04:38.822Z,20.60
2018-08-04T04:07:06.726Z,20.60
2018-08-04T04:09:34.334Z,20.50
2018-08-04T04:12:02.427Z,20.50
2018-08-04T04:14:30.271Z,20.50
2018-08-04T04:16:58.331Z,20.50
2018-08-04T04:19:26.230Z,20.50
2018-08-04T04:21:54.303Z,20.50
2018-08-04T04:24:21.802Z,20.50
2018-08-04T04:26:49.301Z,20.50
2018-08-04T04:29:16.824Z,20.40
2018-08-04T04:31:44.372Z,20.40
2018-08-04T04:34:12.323Z,20.40
2018-08-04T04:36:39.833Z,20.40
2018-08-04T04:39:09.276Z,20.40
2018-08-04T04:41:37.335Z,20.40
2018-08-04T04:44:05.725Z,20.50
2018-08-04T04:46:37.799Z,20.50
2018-08-04T04:49:06.940Z,20.60
2018-08-04T04:51:35.268Z,20.60
2018-08-04T04:56:31.096Z,20.70
2018-08-04T04:58:58.600Z,20.70
2018-08-04T05:01:26.136Z,20.90
2018-08-04T05:06:21.180Z,20.90
2018-08-04T05:08:49.025Z,21.00
2018-08-04T05:11:16.528Z,21.10
2018-08-04T05:13:44.888Z,21.10
2018-08-04T05:18:40.184Z,21.30
2018-08-04T05:21:08.024Z,21.30
2018-08-04T05:23:36.364Z,21.40
2018-08-04T05:28:31.444Z,21.50
2018-08-04T05:30:59.327Z,21.60
2018-08-04T05:33:27.880Z,21.70
2018-08-04T05:35:55.753Z,21.70
2018-08-04T05:38:23.248Z,21.80
2018-08-04T05:40:51.365Z,21.90
2018-08-04T05:43:19.396Z,22.00
2018-08-04T05:45:47.416Z,22.10
2018-08-04T05:48:15.500Z,22.10
2018-08-04T05:50:43.008Z,22.20
2018-08-04T05:53:11.168Z,22.20
2018-08-04T05:55:38.724Z,22.30
2018-08-04T05:58:06.693Z,22.30
2018-08-04T06:00:34.584Z,22.40
2018-08-04T06:03:02.083Z,22.40
2018-08-04T06:05:29.607Z,22.50
2018-08-04T06:07:57.679Z,22.50
2018-08-04T06:10:25.647Z,22.60
2018-08-04T06:12:53.692Z,22.70
2018-08-04T06:15:21.610Z,22.70
2018-08-04T06:17:49.120Z,22.70
2018-08-04T06:20:17.159Z,22.90
2018-08-04T06:22:45.125Z,22.90
2018-08-04T06:25:12.632Z,23.00
2018-08-04T06:27:40.128Z,23.10
2018-08-04T06:30:09.368Z,23.20
2018-08-04T06:32:36.860Z,23.20
2018-08-04T06:35:04.910Z,23.30
2018-08-04T06:37:33.124Z,23.40
2018-08-04T06:40:01.509Z,23.50
2018-08-04T06:42:29.445Z,23.50
2018-08-04T06:44:57.360Z,23.60
2018-08-04T06:47:24.860Z,23.70
2018-08-04T06:49:52.344Z,23.80
2018-08-04T06:52:19.970Z,23.80
2018-08-04T06:54:47.511Z,23.90
2018-08-04T06:57:15.124Z,24.00
2018-08-04T06:59:42.704Z,24.00
2018-08-04T07:02:10.240Z,24.10
2018-08-04T07:04:39.412Z,24.20
2018-08-04T07:07:07.812Z,24.30
2018-08-04T07:09:35.717Z,24.30
2018-08-04T07:12:03.639Z,24.40
2018-08-04T07:14:31.828Z,24.40
2018-08-04T07:21:55.352Z,24.70
2018-08-04T07:24:22.879Z,24.80
2018-08-04T07:26:50.443Z,24.90
2018-08-04T07:29:17.995Z,25.00
2018-08-04T07:31:45.517Z,25.10
2018-08-04T07:34:13.413Z,25.10
2018-08-04T07:36:42.244Z,25.20
2018-08-04T07:39:10.935Z,25.30
2018-08-04T07:41:39.244Z,25.50
2018-08-04T07:44:07.097Z,25.50
2018-08-04T07:49:03.115Z,25.60
2018-08-04T07:51:30.886Z,25.70
2018-08-04T07:53:58.431Z,25.80
2018-08-04T07:56:26.065Z,25.90
2018-08-04T07:58:53.625Z,26.00
2018-08-04T08:01:21.796Z,26.00
2018-08-04T08:03:49.298Z,26.10
2018-08-04T08:06:17.261Z,26.20
2018-08-04T08:08:45.098Z,26.20
2018-08-04T08:13:40.556Z,26.30
2018-08-04T08:16:08.477Z,26.50
2018-08-04T08:18:35.991Z,26.60
2018-08-04T08:21:04.130Z,26.70
2018-08-04T08:23:32.108Z,26.80
2018-08-04T08:26:05.149Z,26.80
2018-08-04T08:28:33.012Z,26.90
2018-08-04T08:31:00.992Z,26.90
2018-08-04T08:33:29.024Z,27.00
2018-08-04T08:35:56.988Z,27.00
2018-08-04T08:38:24.572Z,27.10
2018-08-04T08:40:52.132Z,27.20
2018-08-04T08:43:20.300Z,27.20
2018-08-04T08:48:15.625Z,27.40
2018-08-04T08:50:43.592Z,27.40
2018-08-04T08:53:11.199Z,27.40
2018-08-04T08:55:39.168Z,27.50
2018-08-04T08:58:06.699Z,27.60
2018-08-04T09:00:34.724Z,27.80
2018-08-04T09:03:02.829Z,27.70
2018-08-04T09:05:30.998Z,27.90
2018-08-04T09:07:59.178Z,27.90
2018-08-04T09:10:27.646Z,28.10
2018-08-04T09:12:55.615Z,28.20
2018-08-04T09:15:23.564Z,28.30
2018-08-04T09:17:51.167Z,28.40
2018-08-04T09:20:19.191Z,28.40
2018-08-04T09:35:10.521Z,28.70
2018-08-04T09:37:38.076Z,28.90
2018-08-04T09:42:35.095Z,29.10
2018-08-04T09:45:03.564Z,29.20
2018-08-04T09:47:31.084Z,29.20
2018-08-04T09:49:58.704Z,29.30
2018-08-04T09:52:26.288Z,29.30
2018-08-04T09:54:54.199Z,29.40
2018-08-04T09:59:50.738Z,29.50
2018-08-04T10:02:24.030Z,29.60
2018-08-04T10:04:52.774Z,29.70
2018-08-04T10:07:21.128Z,29.80
2018-08-04T10:12:16.495Z,29.90
2018-08-04T10:14:44.384Z,30.10
2018-08-04T10:17:11.930Z,30.20
2018-08-04T10:19:39.847Z,30.30
2018-08-04T10:22:08.890Z,30.30
2018-08-04T10:24:36.384Z,30.40
2018-08-04T10:27:04.405Z,30.40
2018-08-04T10:32:00.054Z,30.50
2018-08-04T10:34:27.965Z,30.60
2018-08-04T10:36:55.493Z,30.80
2018-08-04T10:39:23.055Z,30.80
2018-08-04T10:41:51.047Z,30.90
2018-08-04T10:44:19.252Z,31.00
2018-08-04T10:46:46.783Z,31.00
2018-08-04T10:49:14.301Z,31.10
2018-08-04T10:51:41.944Z,31.00
2018-08-04T10:54:10.276Z,31.10
2018-08-04T10:59:06.040Z,31.30
2018-08-04T11:01:34.090Z,31.40
2018-08-04T11:04:01.605Z,31.40
2018-08-04T11:06:29.832Z,31.50
2018-08-04T11:08:57.356Z,31.50
2018-08-04T11:11:24.866Z,31.50
2018-08-04T11:13:52.978Z,31.60
2018-08-04T11:16:20.503Z,31.70
2018-08-04T11:18:48.031Z,31.60
2018-08-04T11:21:16.550Z,31.70
2018-08-04T11:23:44.120Z,31.70
2018-08-04T11:26:12.383Z,31.70
2018-08-04T11:28:41.068Z,31.80
2018-08-04T11:31:09.130Z,31.80
2018-08-04T11:33:36.884Z,31.90
2018-08-04T11:36:05.838Z,31.90
2018-08-04T11:38:33.352Z,32.00
2018-08-04T11:41:01.379Z,32.10
2018-08-04T11:43:29.364Z,32.20
2018-08-04T11:45:57.447Z,32.30
2018-08-04T11:48:25.334Z,32.30
2018-08-04T11:50:53.751Z,32.40
2018-08-04T11:53:21.745Z,32.40
2018-08-04T11:55:49.252Z,32.40
2018-08-04T11:58:17.403Z,32.40
2018-08-04T12:00:45.364Z,32.50
2018-08-04T12:03:13.335Z,32.60
2018-08-04T12:05:40.877Z,32.60
2018-08-04T12:08:08.515Z,32.50
2018-08-04T12:10:36.091Z,32.60
2018-08-04T12:13:04.180Z,32.60
2018-08-04T12:15:32.103Z,32.70
2018-08-04T12:17:59.630Z,32.80
2018-08-04T12:20:27.615Z,32.80
2018-08-04T12:25:23.494Z,32.80
2018-08-04T12:27:51.380Z,32.90
2018-08-04T12:30:18.879Z,32.90
2018-08-04T12:32:46.380Z,33.10
2018-08-04T12:35:14.340Z,33.10
2018-08-04T12:40:09.297Z,33.20
2018-08-04T12:42:38.356Z,33.30
2018-08-04T12:47:33.716Z,33.20
2018-08-04T12:50:01.766Z,33.20
2018-08-04T12:52:29.655Z,33.30
2018-08-04T12:54:57.562Z,33.30
2018-08-04T12:57:25.542Z,33.30
2018-08-04T12:59:53.144Z,33.30
2018-08-04T13:02:20.647Z,33.30
2018-08-04T13:04:48.199Z,33.40
2018-08-04T13:07:15.736Z,33.40
2018-08-04T13:09:43.447Z,33.50
2018-08-04T13:12:11.000Z,33.60
2018-08-04T13:14:38.950Z,33.70
2018-08-04T13:19:34.319Z,33.90
2018-08-04T13:22:02.252Z,33.80
2018-08-04T13:24:30.224Z,33.70
2018-08-04T13:26:57.743Z,33.90
2018-08-04T13:29:25.304Z,33.80
2018-08-04T13:31:52.838Z,33.90
2018-08-04T13:34:21.504Z,34.10
2018-08-04T13:36:49.021Z,34.20
2018-08-04T13:39:16.541Z,34.10
2018-08-04T13:41:44.535Z,34.20
2018-08-04T13:44:12.364Z,34.10
2018-08-04T13:46:40.340Z,34.10
2018-08-04T13:49:09.036Z,34.20
2018-08-04T13:51:36.807Z,34.20
2018-08-04T13:54:05.508Z,34.20
2018-08-04T13:56:33.004Z,34.20
2018-08-04T13:59:00.529Z,34.30
2018-08-04T14:01:28.161Z,34.30
2018-08-04T14:03:56.046Z,34.20
2018-08-04T14:06:23.565Z,34.10
2018-08-04T14:08:51.493Z,34.50
2018-08-04T14:11:19.309Z,35.00
2018-08-04T14:13:48.732Z,35.50
2018-08-04T14:16:17.249Z,36.00
2018-08-04T14:18:45.774Z,36.20
2018-08-04T14:21:14.426Z,36.30
2018-08-04T14:23:43.774Z,36.70
2018-08-04T14:26:12.052Z,37.00
2018-08-04T14:28:40.283Z,37.20
2018-08-04T14:31:08.238Z,37.50
2018-08-04T14:33:35.781Z,37.70
2018-08-04T14:36:04.988Z,37.70
2018-08-04T14:38:32.596Z,38.10
2018-08-04T14:41:00.682Z,38.30
2018-08-04T14:43:28.692Z,38.30
2018-08-04T14:45:56.876Z,38.30
2018-08-04T14:48:24.527Z,38.60
2018-08-04T14:50:53.111Z,38.20
2018-08-04T14:53:21.412Z,38.20
2018-08-04T14:55:49.058Z,38.30
2018-08-04T14:58:16.813Z,38.20
2018-08-04T15:00:44.518Z,38.60
2018-08-04T15:03:12.040Z,38.80
2018-08-04T15:05:39.636Z,38.80
2018-08-04T15:08:07.489Z,38.90
2018-08-04T15:10:35.602Z,38.80
2018-08-04T15:13:03.196Z,38.80
2018-08-04T15:15:31.092Z,39.10
2018-08-04T15:20:26.919Z,39.00
2018-08-04T15:25:23.132Z,39.30
2018-08-04T15:27:50.707Z,38.80
2018-08-04T15:30:18.228Z,39.00
2018-08-04T15:32:45.776Z,38.90
2018-08-04T15:35:13.589Z,39.00
2018-08-04T15:37:41.185Z,39.00
2018-08-04T15:40:09.291Z,39.10
2018-08-04T15:42:37.460Z,39.30
2018-08-04T15:45:05.511Z,39.30
2018-08-04T15:47:33.665Z,39.50
2018-08-04T15:50:01.510Z,39.70
2018-08-04T15:52:29.063Z,40.00
2018-08-04T15:54:56.578Z,40.30
2018-08-04T15:57:24.128Z,40.50
2018-08-04T15:59:51.648Z,40.70
2018-08-04T16:02:19.545Z,40.40
2018-08-04T16:04:47.067Z,39.60
2018-08-04T16:09:42.122Z,38.40
2018-08-04T16:12:09.740Z,37.80
2018-08-04T16:14:38.053Z,37.30
2018-08-04T16:17:06.535Z,36.90
2018-08-04T16:19:34.399Z,36.20
2018-08-04T16:22:02.338Z,35.70
2018-08-04T16:24:29.865Z,35.40
2018-08-04T16:26:57.419Z,35.10
2018-08-04T16:29:25.583Z,35.00
2018-08-04T16:31:53.601Z,34.80
2018-08-04T16:34:21.747Z,34.50
2018-08-04T16:39:17.124Z,34.10
2018-08-04T16:41:45.122Z,33.80
2018-08-04T16:44:13.155Z,33.70
2018-08-04T16:46:41.212Z,33.40
2018-08-04T16:49:09.799Z,33.20
2018-08-04T16:51:37.343Z,33.10
2018-08-04T16:54:05.068Z,32.80
2018-08-04T16:56:32.583Z,32.60
2018-08-04T16:59:00.093Z,32.40
2018-08-04T17:01:27.700Z,32.20
2018-08-04T17:03:55.454Z,31.90
2018-08-04T17:06:23.029Z,31.50
2018-08-04T17:08:50.596Z,31.40
2018-08-04T17:11:18.505Z,31.20
2018-08-04T17:13:46.420Z,30.90
2018-08-04T17:16:14.471Z,30.80
2018-08-04T17:18:42.604Z,30.70
2018-08-04T17:21:10.511Z,30.50
2018-08-04T17:23:38.396Z,30.30
2018-08-04T17:26:06.408Z,30.20
2018-08-04T17:28:33.924Z,30.10
2018-08-04T17:31:02.226Z,30.10
2018-08-04T17:33:29.789Z,30.00
2018-08-04T17:35:58.136Z,29.90
2018-08-04T17:38:26.031Z,29.90
2018-08-04T17:40:53.852Z,29.80
2018-08-04T17:45:50.119Z,29.70
2018-08-04T17:50:45.143Z,29.50
2018-08-04T17:53:12.655Z,29.50
2018-08-04T17:55:40.172Z,29.40
2018-08-04T17:58:07.881Z,29.50
2018-08-04T18:00:36.207Z,29.30
2018-08-04T18:05:31.298Z,29.30
2018-08-04T18:07:59.310Z,29.20
2018-08-04T18:12:54.596Z,29.10
2018-08-04T18:15:23.215Z,29.10
2018-08-04T18:17:50.772Z,29.00
2018-08-04T18:20:18.880Z,28.90
2018-08-04T18:22:47.471Z,28.80
2018-08-04T18:25:14.980Z,28.70
2018-08-04T18:27:42.511Z,28.60
2018-08-04T18:30:10.711Z,28.40
2018-08-04T18:32:38.788Z,28.40
2018-08-04T18:35:06.675Z,28.20
2018-08-04T18:37:34.700Z,28.20
2018-08-04T18:40:02.666Z,28.00
2018-08-04T18:47:25.851Z,27.80
2018-08-04T18:49:54.057Z,27.70
2018-08-04T18:52:21.623Z,27.60
2018-08-04T18:54:49.238Z,27.60
2018-08-04T18:57:16.829Z,27.50
2018-08-04T18:59:44.546Z,27.40
2018-08-04T19:02:12.159Z,27.30
2018-08-04T19:04:40.452Z,26.90
2018-08-04T19:07:08.649Z,26.60
2018-08-04T19:09:36.437Z,26.40
2018-08-04T19:12:04.132Z,26.30
2018-08-04T19:14:32.140Z,26.20
2018-08-04T19:17:00.980Z,26.10
2018-08-04T19:19:28.487Z,26.10
2018-08-04T19:21:56.903Z,26.00
2018-08-04T19:24:24.717Z,26.00
2018-08-04T19:26:52.358Z,25.90
2018-08-04T19:29:20.061Z,25.80
2018-08-04T19:31:49.186Z,25.60
2018-08-04T19:34:17.713Z,25.60
2018-08-04T19:36:45.378Z,25.50
2018-08-04T19:39:13.740Z,25.40
2018-08-04T19:41:41.900Z,25.30
2018-08-04T19:44:11.116Z,25.20
2018-08-04T19:46:39.514Z,25.20
2018-08-04T19:49:07.466Z,25.00
2018-08-04T19:51:35.151Z,25.10
2018-08-04T19:54:02.989Z,25.00
2018-08-04T19:56:31.130Z,24.90
2018-08-04T19:58:59.391Z,24.80
2018-08-04T20:01:27.473Z,24.70
2018-08-04T20:03:56.371Z,24.60
2018-08-04T20:06:24.260Z,24.60
2018-08-04T20:08:52.796Z,24.60
2018-08-04T20:16:18.964Z,24.20
2018-08-04T20:21:17.010Z,24.20
2018-08-04T20:23:45.297Z,24.20
2018-08-04T20:26:13.534Z,24.10
2018-08-04T20:28:41.526Z,24.10
2018-08-04T20:31:09.588Z,24.10
2018-08-04T20:33:37.196Z,24.10
2018-08-04T20:36:05.549Z,24.10
2018-08-04T20:38:34.086Z,24.10
2018-08-04T20:41:02.892Z,24.10
2018-08-04T20:43:31.160Z,24.10
2018-08-04T20:45:58.887Z,24.10
2018-08-04T20:48:26.844Z,24.00
2018-08-04T20:50:54.339Z,24.10
2018-08-04T20:53:22.451Z,24.00
2018-08-04T21:03:18.759Z,23.30
2018-08-04T21:05:46.299Z,23.30
2018-08-04T21:08:14.031Z,23.30
2018-08-04T21:10:41.601Z,23.20
2018-08-04T21:13:09.719Z,23.20
2018-08-04T21:18:05.263Z,23.10
2018-08-04T21:20:34.564Z,23.10
2018-08-04T21:23:03.037Z,23.00
2018-08-04T21:25:30.551Z,22.90
2018-08-04T21:27:58.603Z,22.90
2018-08-04T21:30:26.121Z,22.90
2018-08-04T21:32:53.928Z,22.80
2018-08-04T21:35:21.827Z,22.80
2018-08-04T21:37:50.276Z,22.80
2018-08-04T21:42:45.708Z,22.80
2018-08-04T21:45:13.936Z,22.70
2018-08-04T21:47:41.603Z,22.70
2018-08-04T21:50:09.131Z,22.60
2018-08-04T21:52:37.199Z,22.50
2018-08-04T21:57:32.183Z,22.30
2018-08-04T22:00:00.204Z,22.20
2018-08-04T22:02:27.809Z,22.20
2018-08-04T22:04:56.029Z,22.20
2018-08-04T22:07:45.156Z,22.20
2018-08-04T22:10:13.417Z,22.20
2018-08-04T22:12:41.703Z,22.20
2018-08-04T22:15:10.967Z,22.20
2018-08-04T22:17:38.559Z,22.10
2018-08-04T22:20:08.183Z,22.00
2018-08-04T22:22:36.519Z,21.90
2018-08-04T22:25:06.774Z,21.80
2018-08-04T22:27:34.316Z,21.90
2018-08-04T22:30:01.918Z,21.80
2018-08-04T22:32:30.159Z,21.80
2018-08-04T22:34:58.735Z,21.70
2018-08-04T22:37:26.260Z,21.60
2018-08-04T22:39:54.335Z,21.60
2018-08-04T22:42:22.473Z,21.50
2018-08-04T22:46:18.853Z,21.50
2018-08-04T22:51:31.919Z,21.30
2018-08-04T22:53:59.971Z,21.30
2018-08-04T22:56:27.474Z,21.20
2018-08-04T22:58:55.355Z,21.20
2018-08-04T23:01:22.927Z,21.30
2018-08-04T23:03:50.453Z,21.30
2018-08-04T23:06:18.000Z,21.30
2018-08-04T23:08:45.487Z,21.10
2018-08-04T23:11:13.058Z,21.10
2018-08-04T23:13:40.988Z,20.90
2018-08-04T23:21:03.892Z,21.00
2018-08-04T23:23:31.795Z,21.00
2018-08-04T23:25:59.301Z,21.00
2018-08-04T23:28:27.691Z,21.10
2018-08-04T23:30:55.246Z,21.00
2018-08-04T23:33:23.559Z,21.00
2018-08-04T23:35:51.835Z,21.00
2018-08-04T23:38:19.343Z,21.00
2018-08-04T23:40:46.879Z,20.90
2018-08-04T23:43:14.973Z,20.90
2018-08-04T23:45:43.181Z,20.90
2018-08-04T23:48:10.765Z,20.80
2018-08-04T23:50:39.608Z,20.80
2018-08-04T23:53:07.855Z,20.70
2018-08-04T23:55:35.847Z,20.70
2018-08-04T23:58:03.359Z,20.60
